Milan, MI

2:38 PM EDT on August 29, 2016 (GMT -0400)
Covington Drive | | Change Station

Elev 810 ft 42.15 °N, 83.74 °W | Updated 4 minutes ago

Partly Cloudy
Partly Cloudy
81.5 °F
Feels Like 83 °F
N
4.5
Wind Variable Wind from SE
Gusts 6.9 mph

Today
High -- | Low -- °F
--% Chance of Precip.
Yesterday
High -- | Low -- °F
Precip. -- in
Pressure 30.26 in
Visibility 10.0 miles
Clouds Few 3400 ft
Heat Index 83 °F
Dew Point 64 °F
Humidity 55%
Rainfall 0.00 in
Snow Depth Not available.
6:57 AM 8:12 PM
Waning Crescent, 7% visible
METAR KARB 291753Z 06003KT 10SM FEW034 27/19 A3028 RMK AO2 SLP247 T02720189 10278 20200 58004
Pressure 30.26 in
Visibility 10.0 miles
Clouds Few 3400 ft
Heat Index 83 °F
Dew Point 64 °F
Humidity 55%
Rainfall 0.00 in
Snow Depth Not available.
6:57 AM 8:12 PM
Waning Crescent, 7% visible
METAR KARB 291753Z 06003KT 10SM FEW034 27/19 A3028 RMK AO2 SLP247 T02720189 10278 20200 58004

10-Day Weather Forecast

Almanac

Astronomy

Aug. 29, 2016 Rise Set
Actual Time
Civil Twilight
Nautical Twilight
Astronomical Twilight
Moon
Length of Visible Light
Length of Day
Tomorrow will be .
, % of the Moon is Illuminated

Today's Extremes

State Highs State Lows

Community

WunderPhotos

Upload Photos

1,935,685 photos uploaded!

WunderBlog® & News

Nearby

Air Quality

  Air Quality AQ Index Pollutant
Not available.

Snow Depth

Station Depth Elevation

Earthquake Activity

City Distance Mag. Time & Date
Minimum magnitude displayed is 2.5.

Coastal Water Temperatures

Place Temperature

Stations

Nearby Weather Stations

Station Location Temp. Windchill Dew Point Humidity Wind Precip. Elev Updated Type
                   

Watches & Warnings

There are currently no watches in effect.